Time;durP1;ratioP1;P1;durP2;ratioP2;P2;SDS_P1;SDS_P2;PMS_P1;PMS_P2;Temp;Humidity;BMP_temperature;BMP_pressure;BME280_temperature;BME280_humidity;BME280_pressure;Samples;Min_cycle;Max_cycle;Signal;HPM_P1;HPM_P2
2022/10/05 00:01:40;;;;;;;10.75;4.03;;;;;;;;;;5064271;28;20028;-78
2022/10/05 00:04:14;;;;;;;7.07;3.65;;;;;;;;;;5069917;28;20027;-79
2022/10/05 00:06:44;;;;;;;7.70;4.15;;;;;;;;;;5068156;28;20032;-78
2022/10/05 00:09:13;;;;;;;7.45;3.90;;;;;;;;;;5066257;28;20040;-79
2022/10/05 00:11:39;;;;;;;5.65;3.70;;;;;;;;;;5049206;28;20446;-79
2022/10/05 00:14:20;;;;;;;5.82;4.00;;;;;;;;;;5067495;28;20530;-79
2022/10/05 00:16:46;;;;;;;5.32;3.80;;;;;;;;;;5072436;28;20028;-79
2022/10/05 00:19:22;;;;;;;6.38;4.10;;;;;;;;;;5080332;28;20039;-79
2022/10/05 00:21:47;;;;;;;7.13;3.33;;;;;;;;;;5067044;28;20386;-79
2022/10/05 00:24:16;;;;;;;12.38;4.18;;;;;;;;;;5068937;28;20036;-79
2022/10/05 00:26:42;;;;;;;5.53;4.07;;;;;;;;;;5072113;28;20107;-80
2022/10/05 00:29:21;;;;;;;6.97;3.97;;;;;;;;;;5072640;28;20052;-79
2022/10/05 00:31:47;;;;;;;4.35;3.47;;;;;;;;;;5067539;28;20024;-79
2022/10/05 00:34:13;;;;;;;5.28;3.33;;;;;;;;;;5071872;28;20025;-79
2022/10/05 00:36:39;;;;;;;6.20;3.78;;;;;;;;;;5052002;28;20029;-79
2022/10/05 00:39:04;;;;;;;6.30;3.45;;;;;;;;;;5071477;28;20040;-79
2022/10/05 00:41:45;;;;;;;6.57;3.70;;;;;;;;;;5067269;28;20048;-79
2022/10/05 00:44:26;;;;;;;9.13;4.03;;;;;;;;;;5067973;28;20104;-79
2022/10/05 00:47:13;;;;;;;7.55;3.55;;;;;;;;;;5064202;28;20025;-79
2022/10/05 00:49:48;;;;;;;5.95;4.20;;;;;;;;;;5074054;28;20079;-79
2022/10/05 00:52:49;;;;;;;7.63;3.72;;;;;;;;;;5067959;28;20413;-80
2022/10/05 00:55:32;;;;;;;5.95;3.67;;;;;;;;;;5061368;28;20029;-80
2022/10/05 00:58:31;;;;;;;8.63;4.03;;;;;;;;;;5062407;28;21458;-80
2022/10/05 01:01:09;;;;;;;5.60;3.67;;;;;;;;;;5069592;28;20180;-79
2022/10/05 01:03:46;;;;;;;10.80;4.38;;;;;;;;;;5068216;28;20027;-80
2022/10/05 01:06:30;;;;;;;6.85;4.43;;;;;;;;;;5073188;28;20032;-80
2022/10/05 01:09:05;;;;;;;5.53;3.88;;;;;;;;;;5064199;28;20031;-80
2022/10/05 01:11:57;;;;;;;7.68;4.25;;;;;;;;;;5068971;28;20490;-80
2022/10/05 01:14:28;;;;;;;11.18;3.75;;;;;;;;;;5068049;28;20028;-80
2022/10/05 01:17:19;;;;;;;10.57;4.00;;;;;;;;;;5066750;28;20029;-79
2022/10/05 01:20:02;;;;;;;8.63;4.13;;;;;;;;;;5068112;28;20273;-79
2022/10/05 01:22:37;;;;;;;4.82;3.30;;;;;;;;;;5066890;28;20179;-80
2022/10/05 01:25:02;;;;;;;10.02;4.10;;;;;;;;;;5071376;28;20490;-79
2022/10/05 01:27:41;;;;;;;5.00;3.80;;;;;;;;;;5065746;28;20038;-80
2022/10/05 01:30:15;;;;;;;6.80;3.30;;;;;;;;;;5066646;28;20025;-80
2022/10/05 01:32:58;;;;;;;4.95;3.35;;;;;;;;;;5066007;28;20024;-80
2022/10/05 01:35:33;;;;;;;9.60;3.85;;;;;;;;;;5066993;28;20486;-79
2022/10/05 01:38:20;;;;;;;5.00;3.35;;;;;;;;;;5064948;28;20032;-79
2022/10/05 01:41:19;;;;;;;4.40;3.45;;;;;;;;;;5063740;28;20035;-79
2022/10/05 01:43:54;;;;;;;5.70;3.78;;;;;;;;;;5044470;28;20020;-79
2022/10/05 01:46:35;;;;;;;9.25;4.00;;;;;;;;;;5067057;28;20038;-79
2022/10/05 01:49:39;;;;;;;8.60;4.30;;;;;;;;;;5066281;28;20020;-80
2022/10/05 01:52:26;;;;;;;6.63;3.53;;;;;;;;;;5063594;28;20024;-79
2022/10/05 01:55:28;;;;;;;5.03;3.40;;;;;;;;;;5065235;28;20474;-79
2022/10/05 01:58:06;;;;;;;5.88;4.10;;;;;;;;;;5066789;28;20033;-79
2022/10/05 02:00:39;;;;;;;4.90;3.58;;;;;;;;;;5064124;28;20405;-80
2022/10/05 02:03:08;;;;;;;8.52;3.80;;;;;;;;;;5067612;28;20028;-79
2022/10/05 02:05:47;;;;;;;9.05;3.75;;;;;;;;;;5065910;28;20036;-79
2022/10/05 02:08:12;;;;;;;6.43;3.80;;;;;;;;;;5067413;28;20482;-79
2022/10/05 02:10:48;;;;;;;9.93;3.70;;;;;;;;;;5067194;28;20028;-80
2022/10/05 02:13:13;;;;;;;5.18;3.67;;;;;;;;;;5068654;28;20012;-79
2022/10/05 02:15:52;;;;;;;5.78;3.85;;;;;;;;;;5072205;28;20375;-80
2022/10/05 02:18:26;;;;;;;5.57;3.72;;;;;;;;;;5072801;28;20054;-79
2022/10/05 02:20:55;;;;;;;7.53;4.07;;;;;;;;;;5066074;28;20029;-80
2022/10/05 02:23:25;;;;;;;5.43;3.85;;;;;;;;;;5063209;28;20068;-79
2022/10/05 02:25:53;;;;;;;6.03;4.32;;;;;;;;;;5067266;28;20036;-79
2022/10/05 02:28:28;;;;;;;6.65;4.22;;;;;;;;;;5074031;28;20020;-79
2022/10/05 02:31:16;;;;;;;6.10;4.03;;;;;;;;;;5066524;28;20037;-79
2022/10/05 02:33:41;;;;;;;6.18;3.40;;;;;;;;;;5047438;28;20031;-80
2022/10/05 02:36:18;;;;;;;6.22;3.63;;;;;;;;;;5067552;28;20013;-79
2022/10/05 02:39:09;;;;;;;6.10;4.28;;;;;;;;;;5070001;28;20020;-79
2022/10/05 02:41:52;;;;;;;7.90;4.00;;;;;;;;;;5067530;28;20035;-79
2022/10/05 02:44:30;;;;;;;7.97;3.95;;;;;;;;;;5068218;28;20106;-79
2022/10/05 02:47:28;;;;;;;5.07;3.50;;;;;;;;;;5067948;28;20021;-79
2022/10/05 02:50:23;;;;;;;10.18;3.85;;;;;;;;;;5057780;28;20085;-79
2022/10/05 02:53:17;;;;;;;5.80;3.90;;;;;;;;;;5050620;28;20048;-80
2022/10/05 02:55:58;;;;;;;5.63;3.72;;;;;;;;;;5050384;28;20474;-80
2022/10/05 02:58:27;;;;;;;4.80;3.55;;;;;;;;;;5072144;28;20383;-80
2022/10/05 03:01:15;;;;;;;5.68;3.78;;;;;;;;;;5064868;28;20943;-79
2022/10/05 03:03:49;;;;;;;8.38;4.22;;;;;;;;;;5063867;28;20071;-79
2022/10/05 03:06:24;;;;;;;5.22;3.95;;;;;;;;;;5070057;28;20461;-79
2022/10/05 03:09:03;;;;;;;7.18;3.33;;;;;;;;;;5064969;28;20401;-79
2022/10/05 03:11:39;;;;;;;5.47;3.50;;;;;;;;;;5061399;28;20016;-79
2022/10/05 03:14:14;;;;;;;5.63;3.63;;;;;;;;;;5046189;28;20037;-79
2022/10/05 03:16:58;;;;;;;6.70;4.25;;;;;;;;;;5060396;28;20024;-78
2022/10/05 03:19:35;;;;;;;8.65;4.43;;;;;;;;;;5064915;28;20025;-79
2022/10/05 03:22:10;;;;;;;4.88;3.30;;;;;;;;;;5045041;28;20406;-79
2022/10/05 03:24:45;;;;;;;4.38;3.45;;;;;;;;;;5065327;28;20037;-79
2022/10/05 03:27:36;;;;;;;6.03;3.63;;;;;;;;;;5062966;28;20116;-78
2022/10/05 03:30:11;;;;;;;4.40;3.40;;;;;;;;;;5066915;28;20415;-79
2022/10/05 03:32:47;;;;;;;7.93;3.95;;;;;;;;;;5067305;28;20058;-79
2022/10/05 03:35:18;;;;;;;10.40;4.47;;;;;;;;;;5066090;28;20479;-79
2022/10/05 03:38:02;;;;;;;15.88;4.82;;;;;;;;;;5085132;28;20028;-78
2022/10/05 03:40:56;;;;;;;9.40;4.00;;;;;;;;;;5059173;28;20050;-79
2022/10/05 03:44:09;;;;;;;8.23;4.10;;;;;;;;;;5021325;22;20041;-80
2022/10/05 03:47:01;;;;;;;8.00;3.60;;;;;;;;;;4980233;28;20034;-82
2022/10/05 03:50:00;;;;;;;8.80;3.80;;;;;;;;;;5040171;28;20111;-81
2022/10/05 03:52:40;;;;;;;5.10;3.60;;;;;;;;;;5036130;28;20029;-83
2022/10/05 03:55:20;;;;;;;7.00;3.92;;;;;;;;;;5050775;28;20023;-80
2022/10/05 03:57:48;;;;;;;5.00;3.50;;;;;;;;;;5049622;28;20025;-80
2022/10/05 04:00:22;;;;;;;6.10;3.92;;;;;;;;;;5034061;28;20037;-80
2022/10/05 04:03:09;;;;;;;8.80;4.20;;;;;;;;;;5059768;28;20025;-81
2022/10/05 04:06:03;;;;;;;6.75;3.90;;;;;;;;;;5059273;28;20022;-79
2022/10/05 04:08:41;;;;;;;5.60;3.70;;;;;;;;;;5056453;28;20036;-80
2022/10/05 04:11:13;;;;;;;4.60;3.60;;;;;;;;;;5054712;28;20040;-80
2022/10/05 04:13:48;;;;;;;5.05;3.92;;;;;;;;;;5053551;28;20021;-79
2022/10/05 04:16:19;;;;;;;6.45;4.05;;;;;;;;;;5056312;28;20042;-80
2022/10/05 04:19:09;;;;;;;6.55;3.85;;;;;;;;;;5052976;28;20033;-82
2022/10/05 04:21:46;;;;;;;6.15;3.78;;;;;;;;;;5043964;28;20419;-82
2022/10/05 04:24:29;;;;;;;4.75;3.60;;;;;;;;;;5031808;28;20476;-81
2022/10/05 04:26:59;;;;;;;8.50;4.60;;;;;;;;;;5044210;28;20105;-80
2022/10/05 04:29:40;;;;;;;6.35;4.32;;;;;;;;;;5023076;28;20040;-81
2022/10/05 04:32:08;;;;;;;6.90;4.20;;;;;;;;;;5045727;28;20030;-80
2022/10/05 04:34:58;;;;;;;6.20;4.40;;;;;;;;;;5035134;28;20108;-78
2022/10/05 04:37:29;;;;;;;8.98;4.43;;;;;;;;;;5045412;28;20004;-78
2022/10/05 04:40:23;;;;;;;7.80;4.43;;;;;;;;;;5064809;28;20029;-78
2022/10/05 04:43:00;;;;;;;9.75;4.40;;;;;;;;;;5048586;28;20041;-81
2022/10/05 04:46:05;;;;;;;7.18;4.32;;;;;;;;;;5019840;28;20030;-81
2022/10/05 04:48:54;;;;;;;8.85;4.30;;;;;;;;;;5023750;28;20121;-82
2022/10/05 04:51:38;;;;;;;16.08;4.72;;;;;;;;;;5031750;28;20045;-82
2022/10/05 04:54:23;;;;;;;4.95;3.88;;;;;;;;;;5026995;28;20026;-80
2022/10/05 04:56:57;;;;;;;6.43;4.05;;;;;;;;;;5028171;28;20025;-84
2022/10/05 05:00:04;;;;;;;8.80;4.35;;;;;;;;;;5012953;28;20033;-80
2022/10/05 05:03:01;;;;;;;14.52;5.10;;;;;;;;;;5028135;28;20093;-80
2022/10/05 05:05:27;;;;;;;9.57;4.68;;;;;;;;;;5023813;28;20041;-80
2022/10/05 05:08:36;;;;;;;6.55;4.55;;;;;;;;;;5023466;28;20480;-80
2022/10/05 05:11:05;;;;;;;13.02;4.75;;;;;;;;;;5001516;28;20029;-78
2022/10/05 05:14:02;;;;;;;12.68;5.10;;;;;;;;;;5029040;28;20033;-79
2022/10/05 05:16:38;;;;;;;9.70;5.25;;;;;;;;;;5029870;28;20112;-81
2022/10/05 05:19:06;;;;;;;7.55;4.00;;;;;;;;;;5026007;28;20152;-81
2022/10/05 05:21:47;;;;;;;7.75;4.25;;;;;;;;;;5023259;28;20033;-79
2022/10/05 05:24:30;;;;;;;12.85;4.18;;;;;;;;;;5027810;28;20041;-80
2022/10/05 05:27:03;;;;;;;5.43;4.10;;;;;;;;;;5021141;28;20129;-79
2022/10/05 05:30:15;;;;;;;13.70;4.70;;;;;;;;;;5024353;28;20039;-80
2022/10/05 05:32:45;;;;;;;7.22;4.53;;;;;;;;;;5021527;28;20025;-80
2022/10/05 05:35:45;;;;;;;6.90;3.90;;;;;;;;;;5026809;28;20030;-80
2022/10/05 05:38:42;;;;;;;7.80;4.13;;;;;;;;;;5026387;28;20022;-81
2022/10/05 05:41:47;;;;;;;15.32;5.18;;;;;;;;;;5023902;28;20033;-81
2022/10/05 05:44:22;;;;;;;9.30;5.18;;;;;;;;;;5000996;28;20029;-81
2022/10/05 05:47:22;;;;;;;11.00;4.20;;;;;;;;;;5027864;28;20025;-79
2022/10/05 05:50:15;;;;;;;7.82;4.40;;;;;;;;;;5021722;28;20022;-80
2022/10/05 05:52:43;;;;;;;8.00;4.68;;;;;;;;;;5029217;28;20037;-81
2022/10/05 05:55:32;;;;;;;9.77;4.47;;;;;;;;;;5036048;28;20025;-84
2022/10/05 05:58:13;;;;;;;8.55;4.85;;;;;;;;;;5033297;28;20033;-80
2022/10/05 06:00:55;;;;;;;7.90;4.82;;;;;;;;;;5032664;28;20041;-79
2022/10/05 06:03:27;;;;;;;15.65;4.55;;;;;;;;;;5028363;28;20037;-81
2022/10/05 06:05:58;;;;;;;9.23;5.10;;;;;;;;;;5021931;28;20029;-83
2022/10/05 06:08:42;;;;;;;6.88;4.50;;;;;;;;;;5015223;28;20073;-82
2022/10/05 06:11:15;;;;;;;8.10;4.50;;;;;;;;;;5008706;28;20905;-81
2022/10/05 06:13:42;;;;;;;10.20;4.60;;;;;;;;;;5016682;28;20025;-80
2022/10/05 06:16:11;;;;;;;7.10;4.65;;;;;;;;;;5016390;28;20021;-82
2022/10/05 06:18:40;;;;;;;9.88;4.47;;;;;;;;;;5017608;28;20124;-82
2022/10/05 06:21:20;;;;;;;7.15;4.25;;;;;;;;;;5030336;28;20041;-81
2022/10/05 06:24:01;;;;;;;7.80;4.93;;;;;;;;;;5014512;28;21014;-81
2022/10/05 06:26:44;;;;;;;7.43;5.07;;;;;;;;;;5030832;28;20479;-80
2022/10/05 06:29:19;;;;;;;10.30;4.72;;;;;;;;;;5029805;28;20486;-81
2022/10/05 06:32:04;;;;;;;8.70;5.32;;;;;;;;;;5019682;28;20064;-80
2022/10/05 06:35:00;;;;;;;7.88;5.07;;;;;;;;;;5025586;28;20032;-81
2022/10/05 06:37:44;;;;;;;10.38;4.63;;;;;;;;;;5010766;28;20018;-82
2022/10/05 06:40:15;;;;;;;13.27;5.22;;;;;;;;;;5006075;28;20013;-81
2022/10/05 06:42:56;;;;;;;11.02;4.55;;;;;;;;;;5024050;28;20036;-81
2022/10/05 06:45:41;;;;;;;13.93;4.57;;;;;;;;;;5039697;28;20029;-82
2022/10/05 06:48:13;;;;;;;7.50;3.92;;;;;;;;;;5045716;28;20022;-81
2022/10/05 06:50:46;;;;;;;7.20;4.32;;;;;;;;;;5042319;28;20386;-81
2022/10/05 06:53:41;;;;;;;8.43;4.47;;;;;;;;;;5044331;28;20029;-82
2022/10/05 06:56:28;;;;;;;9.38;4.78;;;;;;;;;;5055040;28;20043;-81
2022/10/05 06:59:10;;;;;;;11.02;4.68;;;;;;;;;;5058699;28;20471;-82
2022/10/05 07:01:53;;;;;;;8.88;4.18;;;;;;;;;;5061545;28;20057;-80
2022/10/05 07:04:21;;;;;;;7.15;4.63;;;;;;;;;;5063153;28;20365;-83
2022/10/05 07:06:53;;;;;;;9.23;4.80;;;;;;;;;;5066484;28;20033;-82
2022/10/05 07:09:42;;;;;;;7.80;4.50;;;;;;;;;;5061100;28;20027;-82
2022/10/05 07:12:24;;;;;;;8.10;4.18;;;;;;;;;;5058938;28;20036;-80
2022/10/05 07:15:11;;;;;;;7.50;4.47;;;;;;;;;;5059157;28;20045;-82
2022/10/05 07:17:57;;;;;;;8.68;4.70;;;;;;;;;;5050360;28;20033;-82
2022/10/05 07:20:31;;;;;;;11.57;4.95;;;;;;;;;;5061404;28;20033;-81
2022/10/05 07:23:12;;;;;;;9.00;4.30;;;;;;;;;;5070813;28;20036;-81
2022/10/05 07:25:49;;;;;;;7.57;4.68;;;;;;;;;;5072556;28;20028;-81
2022/10/05 07:28:28;;;;;;;8.48;4.47;;;;;;;;;;5067742;28;20063;-83
2022/10/05 07:30:55;;;;;;;7.80;4.30;;;;;;;;;;5058494;28;20028;-83
2022/10/05 07:33:47;;;;;;;9.35;4.55;;;;;;;;;;5063943;28;20029;-83
2022/10/05 07:39:30;;;;;;;9.30;4.25;;;;;;;;;;5067939;28;20052;-82
2022/10/05 07:42:17;;;;;;;9.45;4.70;;;;;;;;;;5041212;28;20045;-82
2022/10/05 07:44:56;;;;;;;9.20;4.40;;;;;;;;;;5050323;28;20029;-84
2022/10/05 07:47:42;;;;;;;9.40;4.93;;;;;;;;;;5038997;28;20029;-83
2022/10/05 07:50:48;;;;;;;9.15;5.00;;;;;;;;;;5050976;28;20045;-82
2022/10/05 07:53:27;;;;;;;6.70;4.63;;;;;;;;;;5033530;28;20478;-80
2022/10/05 07:55:57;;;;;;;9.50;4.35;;;;;;;;;;5042372;28;20036;-84
2022/10/05 07:58:33;;;;;;;7.53;4.80;;;;;;;;;;5058243;28;20017;-83
2022/10/05 08:01:19;;;;;;;12.60;4.65;;;;;;;;;;5039556;28;20025;-84
2022/10/05 08:04:09;;;;;;;8.98;4.50;;;;;;;;;;5062724;28;20035;-82
2022/10/05 08:06:47;;;;;;;7.68;4.28;;;;;;;;;;5066342;28;20092;-81
2022/10/05 08:09:46;;;;;;;13.07;4.75;;;;;;;;;;5067476;28;20052;-81
2022/10/05 08:12:23;;;;;;;7.72;4.03;;;;;;;;;;5036667;28;20025;-82
2022/10/05 08:14:56;;;;;;;11.85;4.72;;;;;;;;;;5058514;28;20021;-80
2022/10/05 08:17:44;;;;;;;16.10;4.65;;;;;;;;;;5029480;28;20021;-81
2022/10/05 08:20:39;;;;;;;6.18;4.35;;;;;;;;;;5048027;28;20036;-82
2022/10/05 08:23:32;;;;;;;8.77;4.28;;;;;;;;;;5048511;28;20475;-82
2022/10/05 08:26:33;;;;;;;7.57;3.90;;;;;;;;;;5058536;28;20468;-81
2022/10/05 08:29:07;;;;;;;7.30;4.07;;;;;;;;;;5062220;28;20036;-82
2022/10/05 08:31:38;;;;;;;7.20;3.90;;;;;;;;;;5050627;28;20033;-81
2022/10/05 08:34:28;;;;;;;6.05;3.92;;;;;;;;;;5055741;28;20055;-82
2022/10/05 08:36:57;;;;;;;9.15;3.78;;;;;;;;;;5035592;28;20017;-82
2022/10/05 08:39:28;;;;;;;6.05;3.70;;;;;;;;;;5035179;28;20017;-82
2022/10/05 08:42:05;;;;;;;5.57;3.80;;;;;;;;;;5035616;28;20056;-82
2022/10/05 08:44:49;;;;;;;7.88;4.00;;;;;;;;;;5051606;28;20031;-81
2022/10/05 08:47:35;;;;;;;7.85;3.83;;;;;;;;;;5058348;28;20032;-82
2022/10/05 08:50:05;;;;;;;4.95;3.25;;;;;;;;;;5052429;28;20040;-82
2022/10/05 08:53:03;;;;;;;5.93;3.40;;;;;;;;;;5055874;28;20044;-82
2022/10/05 08:55:37;;;;;;;4.95;3.53;;;;;;;;;;5055698;28;20683;-80
2022/10/05 08:58:26;;;;;;;5.05;3.67;;;;;;;;;;5051779;28;20045;-83
2022/10/05 09:01:06;;;;;;;7.15;3.53;;;;;;;;;;5015875;28;20048;-81
2022/10/05 09:03:40;;;;;;;9.23;3.90;;;;;;;;;;5052166;28;20493;-82
2022/10/05 09:06:17;;;;;;;3.47;3.03;;;;;;;;;;5052008;28;20037;-81
2022/10/05 09:08:45;;;;;;;4.90;3.60;;;;;;;;;;5036757;28;20021;-81
2022/10/05 09:11:25;;;;;;;6.72;3.25;;;;;;;;;;5039129;28;20017;-82
2022/10/05 09:14:20;;;;;;;7.32;3.60;;;;;;;;;;5044344;28;20025;-82
2022/10/05 09:17:02;;;;;;;8.60;3.25;;;;;;;;;;5065571;28;20026;-82
2022/10/05 09:19:30;;;;;;;;;;;;;;;;;;5052032;28;20025;-82
2022/10/05 09:22:03;;;;;;;5.00;3.28;;;;;;;;;;5055594;28;19905;-82
2022/10/05 09:24:44;;;;;;;5.07;3.47;;;;;;;;;;5041342;28;20021;-78
2022/10/05 09:27:16;;;;;;;5.65;3.30;;;;;;;;;;5057909;28;20014;-80
2022/10/05 09:30:15;;;;;;;5.53;3.42;;;;;;;;;;5030761;28;20025;-83
2022/10/05 09:32:50;;;;;;;5.60;3.35;;;;;;;;;;5033248;28;20020;-83
2022/10/05 09:35:52;;;;;;;5.80;3.20;;;;;;;;;;5034533;28;20053;-82
2022/10/05 09:38:35;;;;;;;;;;;;;;;;;;5057577;28;20100;-81
2022/10/05 09:41:09;;;;;;;4.15;3.10;;;;;;;;;;5070109;28;19913;-82
2022/10/05 09:43:59;;;;;;;7.03;3.40;;;;;;;;;;5046715;28;20033;-82
2022/10/05 09:46:55;;;;;;;4.22;3.03;;;;;;;;;;5056513;28;20036;-82
2022/10/05 09:49:42;;;;;;;5.55;3.25;;;;;;;;;;5042585;28;20033;-81
2022/10/05 09:52:47;;;;;;;4.53;3.17;;;;;;;;;;5028922;28;20029;-81
2022/10/05 09:55:50;;;;;;;6.25;3.03;;;;;;;;;;5050353;28;20056;-82
2022/10/05 09:58:38;;;;;;;5.10;3.60;;;;;;;;;;5052134;28;20033;-82
2022/10/05 10:01:15;;;;;;;4.22;2.90;;;;;;;;;;5060710;28;20120;-81
2022/10/05 10:03:56;;;;;;;4.47;3.15;;;;;;;;;;5062133;28;20060;-82
2022/10/05 10:06:39;;;;;;;3.20;2.72;;;;;;;;;;5064975;28;20051;-82
2022/10/05 10:09:11;;;;;;;4.97;3.15;;;;;;;;;;5065280;28;20021;-82
2022/10/05 10:11:53;;;;;;;4.65;2.90;;;;;;;;;;5062065;28;20029;-81
2022/10/05 10:14:55;;;;;;;7.05;3.20;;;;;;;;;;5051348;28;20025;-81
2022/10/05 10:17:47;;;;;;;5.00;3.17;;;;;;;;;;5036602;28;20018;-80
2022/10/05 10:20:50;;;;;;;3.45;2.88;;;;;;;;;;5021094;28;20304;-81
2022/10/05 10:23:31;;;;;;;8.88;2.65;;;;;;;;;;5027665;28;20029;-82
2022/10/05 10:26:35;;;;;;;6.07;2.83;;;;;;;;;;5045632;28;20105;-81
2022/10/05 10:29:36;;;;;;;6.13;2.67;;;;;;;;;;5037651;28;20025;-81
2022/10/05 10:32:01;;;;;;;5.38;2.83;;;;;;;;;;5041724;28;20399;-80
2022/10/05 10:34:46;;;;;;;6.50;3.00;;;;;;;;;;5050442;28;20577;-81
2022/10/05 10:37:33;;;;;;;3.58;2.63;;;;;;;;;;5055976;28;20025;-80
2022/10/05 10:40:35;;;;;;;6.85;2.72;;;;;;;;;;5057574;28;20055;-82
2022/10/05 10:43:13;;;;;;;;;;;;;;;;;;5049669;28;20033;-83
2022/10/05 10:45:49;;;;;;;5.85;2.40;;;;;;;;;;5023809;28;19917;-82
2022/10/05 10:48:17;;;;;;;4.72;2.42;;;;;;;;;;5023194;28;20072;-80
2022/10/05 10:50:55;;;;;;;4.53;2.85;;;;;;;;;;5021377;28;20033;-79
2022/10/05 10:53:42;;;;;;;5.47;2.17;;;;;;;;;;5022252;28;20033;-79
2022/10/05 10:56:25;;;;;;;5.85;2.58;;;;;;;;;;5019913;28;20026;-81
2022/10/05 10:59:42;;;;;;;5.22;2.50;;;;;;;;;;5020152;28;20045;-81
2022/10/05 11:02:28;;;;;;;3.47;2.38;;;;;;;;;;5010240;28;20033;-81
2022/10/05 11:05:21;;;;;;;6.03;2.45;;;;;;;;;;5017858;28;20030;-81
2022/10/05 11:08:21;;;;;;;10.18;2.30;;;;;;;;;;5018344;28;20029;-80
2022/10/05 11:11:08;;;;;;;4.57;2.13;;;;;;;;;;5008378;28;20041;-79
2022/10/05 11:14:06;;;;;;;4.25;1.80;;;;;;;;;;5009356;28;20030;-80
2022/10/05 11:16:53;;;;;;;3.60;1.80;;;;;;;;;;5018047;28;20029;-81
2022/10/05 11:19:38;;;;;;;6.63;2.13;;;;;;;;;;5034402;28;20030;-80
2022/10/05 11:22:29;;;;;;;5.88;1.83;;;;;;;;;;5020919;28;20036;-81
2022/10/05 11:25:23;;;;;;;3.53;1.93;;;;;;;;;;5030869;28;20428;-80
2022/10/05 11:28:03;;;;;;;7.05;2.75;;;;;;;;;;5021510;28;20032;-80
2022/10/05 11:30:43;;;;;;;2.83;1.77;;;;;;;;;;5038561;28;20025;-81
2022/10/05 11:33:26;;;;;;;3.75;1.80;;;;;;;;;;5038697;28;20026;-81
2022/10/05 11:36:07;;;;;;;12.02;2.00;;;;;;;;;;5009276;28;20037;-82
2022/10/05 11:39:32;;;;;;;4.18;2.03;;;;;;;;;;5021217;28;20061;-80
2022/10/05 11:42:26;;;;;;;6.50;1.85;;;;;;;;;;5002750;28;20038;-78
2022/10/05 11:45:13;;;;;;;3.30;1.98;;;;;;;;;;5000257;28;21341;-82
2022/10/05 11:48:20;;;;;;;3.40;1.67;;;;;;;;;;5027830;28;20083;-81
2022/10/05 11:51:15;;;;;;;2.58;1.67;;;;;;;;;;5026580;28;20040;-80
2022/10/05 11:54:22;;;;;;;3.00;1.90;;;;;;;;;;5027062;28;20485;-80
2022/10/05 11:57:15;;;;;;;3.13;1.85;;;;;;;;;;4973556;28;20038;-81
2022/10/05 12:00:17;;;;;;;2.53;1.80;;;;;;;;;;4983430;28;20030;-80
2022/10/05 12:02:45;;;;;;;;;;;;;;;;;;4962669;28;20133;-80
2022/10/05 12:05:18;;;;;;;2.90;1.90;;;;;;;;;;5015543;28;19916;-80
2022/10/05 12:07:56;;;;;;;2.00;1.50;;;;;;;;;;5028697;28;20036;-81
2022/10/05 12:11:00;;;;;;;2.20;1.90;;;;;;;;;;5026886;28;20043;-81
2022/10/05 12:13:34;;;;;;;2.75;1.38;;;;;;;;;;5015354;28;20128;-81
2022/10/05 12:16:06;;;;;;;1.30;1.20;;;;;;;;;;5024723;28;20061;-81
2022/10/05 12:18:32;;;;;;;3.53;1.45;;;;;;;;;;5024574;28;20021;-81
2022/10/05 12:21:03;;;;;;;2.28;1.55;;;;;;;;;;5023455;28;20603;-79
2022/10/05 12:23:43;;;;;;;3.78;1.30;;;;;;;;;;5020292;28;20025;-80
2022/10/05 12:26:19;;;;;;;1.48;1.38;;;;;;;;;;5022042;28;20029;-81
2022/10/05 12:29:05;;;;;;;1.95;1.38;;;;;;;;;;5015260;28;20025;-80
2022/10/05 12:32:02;;;;;;;1.75;1.30;;;;;;;;;;5006092;28;20053;-81
2022/10/05 12:34:54;;;;;;;1.52;1.30;;;;;;;;;;5019518;28;20032;-79
2022/10/05 12:37:38;;;;;;;3.15;1.35;;;;;;;;;;5001470;28;20116;-80
2022/10/05 12:40:37;;;;;;;1.63;1.45;;;;;;;;;;5012949;28;20041;-80
2022/10/05 12:43:22;;;;;;;1.35;1.20;;;;;;;;;;5018039;28;20027;-79
2022/10/05 12:46:05;;;;;;;3.33;1.40;;;;;;;;;;5029265;28;20033;-79
2022/10/05 12:48:47;;;;;;;2.20;1.25;;;;;;;;;;5039264;28;20122;-81
2022/10/05 12:51:45;;;;;;;4.18;1.33;;;;;;;;;;5044028;28;20032;-80
2022/10/05 12:54:29;;;;;;;3.03;1.23;;;;;;;;;;5042713;28;20045;-81
2022/10/05 12:57:28;;;;;;;4.60;1.60;;;;;;;;;;5029786;28;20032;-81
2022/10/05 13:00:14;;;;;;;4.38;1.48;;;;;;;;;;5010340;28;20052;-80
2022/10/05 13:02:49;;;;;;;1.15;1.00;;;;;;;;;;5045080;28;20040;-79
2022/10/05 13:06:03;;;;;;;1.60;1.50;;;;;;;;;;5047072;28;20032;-81
2022/10/05 13:08:58;;;;;;;2.33;1.35;;;;;;;;;;5012910;28;20052;-79
2022/10/05 13:11:43;;;;;;;1.30;1.20;;;;;;;;;;5051619;28;20402;-79
2022/10/05 13:14:52;;;;;;;2.17;1.70;;;;;;;;;;5051657;28;20048;-79
2022/10/05 13:17:47;;;;;;;2.78;1.58;;;;;;;;;;5030476;28;20101;-79
2022/10/05 13:20:36;;;;;;;2.53;1.40;;;;;;;;;;5033283;28;20045;-80
2022/10/05 13:23:16;;;;;;;1.98;1.33;;;;;;;;;;5045907;28;20017;-80
2022/10/05 13:25:54;;;;;;;3.10;1.60;;;;;;;;;;5052607;28;20052;-80
2022/10/05 13:28:30;;;;;;;1.85;1.45;;;;;;;;;;5045110;28;20025;-80
2022/10/05 13:31:04;;;;;;;1.92;1.60;;;;;;;;;;5045939;28;20029;-80
2022/10/05 13:33:47;;;;;;;3.88;1.73;;;;;;;;;;5049442;28;20016;-80
2022/10/05 13:36:24;;;;;;;3.88;1.58;;;;;;;;;;5047129;28;20051;-80
2022/10/05 13:39:37;;;;;;;1.63;1.52;;;;;;;;;;5045847;28;20016;-79
2022/10/05 13:42:02;;;;;;;3.35;2.03;;;;;;;;;;4966215;28;20078;-80
2022/10/05 13:45:15;;;;;;;3.53;1.80;;;;;;;;;;4962795;28;20114;-80
2022/10/05 13:48:06;;;;;;;1.80;1.52;;;;;;;;;;5012114;28;20432;-80
2022/10/05 13:50:44;;;;;;;4.65;2.30;;;;;;;;;;5045958;28;20024;-81
2022/10/05 13:53:30;;;;;;;5.07;2.40;;;;;;;;;;5046137;28;20024;-80
2022/10/05 13:56:04;;;;;;;8.00;2.35;;;;;;;;;;5044924;28;20039;-80
2022/10/05 13:58:38;;;;;;;8.90;2.38;;;;;;;;;;5045292;28;20017;-80
2022/10/05 14:01:15;;;;;;;5.90;2.22;;;;;;;;;;5045923;28;20020;-79
2022/10/05 14:03:42;;;;;;;3.17;1.83;;;;;;;;;;5028547;28;20030;-82
2022/10/05 14:06:28;;;;;;;5.78;2.58;;;;;;;;;;5042071;28;20044;-79
2022/10/05 14:08:59;;;;;;;6.55;2.42;;;;;;;;;;5051970;28;20029;-80
2022/10/05 14:11:35;;;;;;;3.65;2.13;;;;;;;;;;5067252;28;20437;-82
2022/10/05 14:14:22;;;;;;;5.15;2.00;;;;;;;;;;5034905;28;20108;-81
2022/10/05 14:16:52;;;;;;;6.15;2.45;;;;;;;;;;5053777;28;20498;-82
2022/10/05 14:19:25;;;;;;;4.65;1.70;;;;;;;;;;5056663;28;20032;-81
2022/10/05 14:21:59;;;;;;;3.60;2.10;;;;;;;;;;5055543;28;20028;-81
2022/10/05 14:24:33;;;;;;;7.22;2.40;;;;;;;;;;5055791;28;20037;-81
2022/10/05 14:26:58;;;;;;;3.42;2.08;;;;;;;;;;5026093;28;20031;-80
2022/10/05 14:29:34;;;;;;;5.38;2.05;;;;;;;;;;5038683;28;20052;-81
2022/10/05 14:32:17;;;;;;;1.77;1.60;;;;;;;;;;5049251;28;20029;-83
2022/10/05 14:35:04;;;;;;;3.38;1.90;;;;;;;;;;5033906;28;20068;-79
2022/10/05 14:37:47;;;;;;;5.90;1.88;;;;;;;;;;5043454;28;20025;-79
2022/10/05 14:40:25;;;;;;;11.10;1.85;;;;;;;;;;5041712;28;20025;-79
2022/10/05 14:42:51;;;;;;;2.78;2.15;;;;;;;;;;5042612;28;20777;-81
2022/10/05 14:45:19;;;;;;;5.57;2.45;;;;;;;;;;5025351;28;20061;-80
2022/10/05 14:47:49;;;;;;;3.85;1.90;;;;;;;;;;5026359;28;20117;-79
2022/10/05 14:50:24;;;;;;;8.77;2.83;;;;;;;;;;5015896;28;20354;-80
2022/10/05 14:53:21;;;;;;;9.77;2.40;;;;;;;;;;5015811;28;20048;-79
2022/10/05 14:56:07;;;;;;;2.60;1.98;;;;;;;;;;5025759;28;20131;-80
2022/10/05 14:58:38;;;;;;;6.32;2.30;;;;;;;;;;5015160;28;20026;-79
2022/10/05 15:01:29;;;;;;;2.63;1.88;;;;;;;;;;5026417;28;20025;-80
2022/10/05 15:04:10;;;;;;;4.20;1.80;;;;;;;;;;5027318;28;20030;-80
2022/10/05 15:07:10;;;;;;;12.52;2.00;;;;;;;;;;5021548;28;20050;-79
2022/10/05 15:10:09;;;;;;;2.20;1.80;;;;;;;;;;5028666;28;20022;-79
2022/10/05 15:12:38;;;;;;;4.80;1.80;;;;;;;;;;5034029;28;20010;-81
2022/10/05 15:15:24;;;;;;;4.60;2.08;;;;;;;;;;5031126;28;20026;-80
2022/10/05 15:17:58;;;;;;;3.90;1.77;;;;;;;;;;5023076;28;20021;-79
2022/10/05 15:20:42;;;;;;;2.08;1.88;;;;;;;;;;5018252;28;20072;-79
2022/10/05 15:23:25;;;;;;;7.45;2.17;;;;;;;;;;5015064;28;20026;-80
2022/10/05 15:26:26;;;;;;;2.53;1.60;;;;;;;;;;5033867;28;20057;-80
2022/10/05 15:29:17;;;;;;;2.30;1.90;;;;;;;;;;5020334;28;20700;-79
2022/10/05 15:31:50;;;;;;;3.35;1.70;;;;;;;;;;5004390;28;20104;-80
2022/10/05 15:34:30;;;;;;;2.10;1.80;;;;;;;;;;5024498;28;20078;-80
2022/10/05 15:37:14;;;;;;;2.35;1.40;;;;;;;;;;5028086;28;20037;-81
2022/10/05 15:39:47;;;;;;;7.22;1.80;;;;;;;;;;5038826;28;20033;-84
2022/10/05 15:42:16;;;;;;;3.97;1.60;;;;;;;;;;5016874;28;20435;-80
2022/10/05 15:44:48;;;;;;;2.42;1.60;;;;;;;;;;5062580;23;20507;-79
2022/10/05 15:47:33;;;;;;;2.20;1.73;;;;;;;;;;5018648;28;20032;-79
2022/10/05 15:50:08;;;;;;;2.78;1.60;;;;;;;;;;5028867;28;21293;-79
2022/10/05 15:52:45;;;;;;;2.67;1.58;;;;;;;;;;5031412;28;20432;-79
2022/10/05 15:55:19;;;;;;;1.60;1.50;;;;;;;;;;5028647;28;20029;-78
2022/10/05 15:57:56;;;;;;;4.82;1.67;;;;;;;;;;5008166;28;20026;-78
2022/10/05 16:00:24;;;;;;;3.22;1.38;;;;;;;;;;5009816;28;20058;-78
2022/10/05 16:03:10;;;;;;;5.78;1.42;;;;;;;;;;5010091;28;20072;-80
2022/10/05 16:09:04;;;;;;;6.53;1.65;;;;;;;;;;5016414;28;20037;-79
2022/10/05 16:11:59;;;;;;;2.17;1.50;;;;;;;;;;5008524;28;20025;-80
2022/10/05 16:14:30;;;;;;;3.28;1.83;;;;;;;;;;5014817;28;20026;-79
2022/10/05 16:17:17;;;;;;;7.45;1.77;;;;;;;;;;5007548;28;20022;-79
2022/10/05 16:20:16;;;;;;;4.55;1.45;;;;;;;;;;5001884;28;20022;-79